createdAt,value
2022-11-16T00:00:54.505Z,52945.84
2022-11-16T00:01:58.042Z,52950.85
2022-11-16T00:03:01.373Z,52924.80
2022-11-16T00:04:04.758Z,52977.91
2022-11-16T00:05:08.068Z,52937.83
2022-11-16T00:06:11.225Z,52934.82
2022-11-16T00:07:14.554Z,52906.77
2022-11-16T00:08:18.004Z,52909.77
2022-11-16T00:09:21.899Z,52937.83
2022-11-16T00:10:25.080Z,52951.86
2022-11-16T00:11:28.307Z,52961.87
2022-11-16T00:12:31.660Z,52953.86
2022-11-16T00:13:35.462Z,52909.77
2022-11-16T00:14:38.827Z,52948.85
2022-11-16T00:55:38.012Z,53019.99
2022-11-16T01:01:58.340Z,52954.86
2022-11-16T01:03:01.826Z,53008.97
2022-11-16T01:05:08.501Z,52985.92
2022-11-16T01:06:12.386Z,52970.89
2022-11-16T01:07:16.079Z,52985.92
2022-11-16T01:08:19.469Z,53032.02
2022-11-16T01:09:23.068Z,52961.87
2022-11-16T01:10:26.643Z,52998.95
2022-11-16T01:11:29.832Z,52997.95
2022-11-16T01:12:32.916Z,53005.96
2022-11-16T01:13:36.307Z,53023.00
2022-11-16T01:14:42.246Z,53033.02
2022-11-16T01:15:45.525Z,53006.97
2022-11-16T01:16:48.712Z,53014.98
2022-11-16T01:17:51.793Z,53014.98
2022-11-16T01:18:54.974Z,53023.00
2022-11-16T01:20:00.721Z,53005.96
2022-11-16T01:21:04.614Z,52992.94
2022-11-16T01:22:08.510Z,52988.93
2022-11-16T01:23:11.497Z,53004.96
2022-11-16T01:24:14.775Z,52984.92
2022-11-16T01:25:18.671Z,52894.74
2022-11-16T01:26:22.679Z,52915.78
2022-11-16T01:27:25.763Z,52912.78
2022-11-16T01:28:29.246Z,52907.77
2022-11-16T01:29:32.422Z,52955.86
2022-11-16T01:30:36.474Z,52910.77
2022-11-16T01:31:39.613Z,52857.67
2022-11-16T01:32:43.309Z,52919.79
2022-11-16T01:33:46.692Z,52982.92
2022-11-16T01:34:50.275Z,52915.78
2022-11-16T01:35:53.565Z,52923.80
2022-11-16T01:36:57.148Z,52953.86
2022-11-16T01:38:01.363Z,53009.97
2022-11-16T01:39:10.061Z,52985.92
2022-11-16T01:40:13.570Z,52980.91
2022-11-16T01:41:21.565Z,52956.86
2022-11-16T01:42:24.936Z,52923.80
2022-11-16T01:43:28.530Z,52983.92
2022-11-16T01:44:32.738Z,52970.89
2022-11-16T01:45:36.535Z,52955.86
2022-11-16T01:46:39.826Z,52989.93
2022-11-16T01:47:42.717Z,52984.92
2022-11-16T01:48:45.806Z,52979.91
2022-11-16T01:49:48.851Z,52950.85
2022-11-16T01:50:52.541Z,52938.83
2022-11-16T01:51:55.626Z,52939.83
2022-11-16T01:52:59.110Z,52962.88
2022-11-16T01:54:02.606Z,52971.89
2022-11-16T01:55:06.403Z,52968.89
2022-11-16T01:56:15.117Z,52983.92
2022-11-16T01:57:18.329Z,52879.71
2022-11-16T01:58:22.302Z,52901.75
2022-11-16T01:59:25.596Z,52902.76
2022-11-16T02:00:28.583Z,52903.76
2022-11-16T02:01:33.185Z,52949.85
2022-11-16T02:02:36.450Z,52980.91
2022-11-16T02:03:39.636Z,52926.80
2022-11-16T02:04:42.522Z,52947.85
2022-11-16T02:05:45.895Z,52960.88
2022-11-16T02:06:49.105Z,53041.04
2022-11-16T02:07:52.281Z,53036.03
2022-11-16T02:08:56.058Z,52992.94
2022-11-16T02:09:58.930Z,52983.92
2022-11-16T02:11:02.223Z,52970.89
2022-11-16T02:12:06.230Z,52910.77
2022-11-16T02:13:09.146Z,52899.75
2022-11-16T02:14:11.996Z,52990.93
2022-11-16T02:15:15.256Z,52985.92
2022-11-16T02:16:18.841Z,53008.97
2022-11-16T02:17:21.916Z,52977.91
2022-11-16T02:18:30.281Z,52963.88
2022-11-16T02:19:34.333Z,52949.85
2022-11-16T02:20:37.632Z,52932.82
2022-11-16T02:21:40.995Z,52950.85
2022-11-16T02:22:44.490Z,52980.91
2022-11-16T02:23:52.213Z,52991.94
2022-11-16T02:25:00.680Z,52965.88
2022-11-16T02:26:04.087Z,52999.95
2022-11-16T02:27:07.138Z,53049.05
2022-11-16T02:28:10.850Z,53083.13
2022-11-16T02:29:14.226Z,53075.11
2022-11-16T02:30:17.833Z,53079.11
2022-11-16T02:31:20.994Z,53049.05
2022-11-16T02:32:24.691Z,53032.02
2022-11-16T02:33:28.592Z,53052.06
2022-11-16T02:34:31.771Z,53049.05
2022-11-16T02:35:35.567Z,53063.08
2022-11-16T02:36:38.642Z,53059.07
2022-11-16T02:37:42.133Z,53054.06
2022-11-16T02:38:50.858Z,53093.14
2022-11-16T02:40:00.236Z,53109.18
2022-11-16T02:41:03.669Z,53121.20
2022-11-16T02:42:06.641Z,53116.19
2022-11-16T02:43:10.465Z,53156.27
2022-11-16T02:44:16.710Z,53167.30
2022-11-16T02:45:19.980Z,53163.29
2022-11-16T02:46:23.132Z,53212.39
2022-11-16T02:47:37.290Z,53253.48
2022-11-16T02:48:40.470Z,53273.52
2022-11-16T02:49:43.661Z,53315.61
2022-11-16T02:50:49.298Z,53342.66
2022-11-16T02:51:52.376Z,53353.69
2022-11-16T02:52:55.463Z,53350.68
2022-11-16T02:53:58.544Z,53367.72
2022-11-16T02:55:01.929Z,53386.76
2022-11-16T02:56:05.121Z,53436.87
2022-11-16T02:57:10.945Z,53443.88
2022-11-16T02:58:18.537Z,53461.92
2022-11-16T02:59:21.900Z,53444.88
2022-11-16T03:00:32.762Z,53403.80
2022-11-16T03:01:36.174Z,53453.90
2022-11-16T03:02:40.064Z,53484.97
2022-11-16T03:03:43.781Z,53528.06
2022-11-16T03:04:49.814Z,53465.93
2022-11-16T03:05:53.091Z,53444.88
2022-11-16T03:07:01.938Z,53422.84
2022-11-16T03:08:05.361Z,53474.95
2022-11-16T03:09:12.074Z,53437.87
2022-11-16T03:10:16.266Z,53445.89
2022-11-16T03:11:28.864Z,53500.00
2022-11-16T03:19:27.214Z,53429.85
2022-11-16T03:38:22.469Z,53107.17
2022-11-16T03:39:27.451Z,53093.14
2022-11-16T03:43:06.282Z,53030.02
2022-11-16T03:44:26.157Z,53046.05
2022-11-16T03:59:12.578Z,53046.05
2022-11-16T04:00:27.599Z,53068.09
2022-11-16T04:02:54.927Z,52994.94
2022-11-16T04:05:31.490Z,52992.94
2022-11-16T04:06:35.021Z,52979.91
2022-11-16T04:07:49.790Z,52952.86
2022-11-16T04:09:05.859Z,52986.93
2022-11-16T04:16:59.452Z,53014.98
2022-11-16T04:18:10.420Z,53019.99
2022-11-16T05:06:17.608Z,54100.35
2022-11-16T05:19:45.101Z,57966.17
2022-11-16T05:37:11.331Z,58577.22
2022-11-16T05:41:14.143Z,58442.76
2022-11-16T05:42:23.529Z,58452.80
2022-11-16T05:43:36.884Z,58430.72
2022-11-16T05:46:05.971Z,58362.49
2022-11-16T05:49:54.122Z,58373.53
2022-11-16T05:50:57.396Z,58392.59
2022-11-16T05:52:01.233Z,58441.76
2022-11-16T05:54:29.791Z,58441.76
2022-11-16T05:55:48.471Z,58480.89
2022-11-16T05:56:55.486Z,58364.50
2022-11-16T06:02:11.116Z,58132.72
2022-11-16T06:03:31.636Z,58099.61
2022-11-16T06:06:08.169Z,57982.22
2022-11-16T06:09:52.702Z,57861.83
2022-11-16T06:12:28.115Z,57856.81
2022-11-16T06:13:34.405Z,57838.75
2022-11-16T06:14:48.199Z,57816.68
2022-11-16T06:15:52.661Z,57756.48
2022-11-16T06:16:56.249Z,57774.54
2022-11-16T06:18:00.987Z,57781.57
2022-11-16T06:19:05.274Z,57749.46
2022-11-16T06:20:10.740Z,57746.45
2022-11-16T06:21:28.740Z,57745.45
2022-11-16T06:22:33.163Z,57765.51
2022-11-16T06:23:36.948Z,57765.51
2022-11-16T06:24:40.649Z,57817.68
2022-11-16T06:25:45.253Z,57919.02
2022-11-16T06:26:48.975Z,58064.49
2022-11-16T06:27:53.377Z,58216.00
2022-11-16T06:29:01.266Z,58296.27
2022-11-16T06:30:11.286Z,58416.67
2022-11-16T06:31:15.215Z,58548.12
2022-11-16T06:32:20.264Z,58592.27
2022-11-16T06:33:24.630Z,58680.58
2022-11-16T06:34:28.543Z,58743.80
2022-11-16T06:35:39.915Z,58786.95
2022-11-16T06:40:54.896Z,56757.38
2022-11-16T06:42:09.236Z,58548.12
2022-11-16T06:43:17.875Z,58485.91
2022-11-16T06:45:55.517Z,58511.00
2022-11-16T06:47:04.982Z,58448.78
2022-11-16T06:48:09.493Z,58284.23
2022-11-16T06:50:33.713Z,58087.57
2022-11-16T06:53:07.806Z,57969.18
2022-11-16T06:54:13.422Z,57830.73
2022-11-16T06:55:28.412Z,57741.44
2022-11-16T06:56:32.343Z,57723.38
2022-11-16T06:57:43.754Z,57564.87
2022-11-16T06:58:53.093Z,57226.81
2022-11-16T06:59:53.538Z,56672.12
2022-11-16T07:01:00.364Z,56123.54
2022-11-16T07:02:04.304Z,55798.64
2022-11-16T07:03:07.236Z,55393.55
2022-11-16T07:04:14.536Z,55036.62
2022-11-16T07:05:18.427Z,54757.92
2022-11-16T07:06:22.412Z,54697.77
2022-11-16T07:07:36.828Z,54806.04
2022-11-16T07:08:40.634Z,54809.05
2022-11-16T07:09:44.471Z,54902.28
2022-11-16T07:10:47.328Z,54874.21
2022-11-16T07:11:51.963Z,54838.12
2022-11-16T07:12:55.533Z,54793.01
2022-11-16T07:13:59.025Z,54829.10
2022-11-16T07:15:02.428Z,54677.72
2022-11-16T07:16:05.789Z,54562.44
2022-11-16T07:17:23.834Z,54460.20
2022-11-16T07:18:27.132Z,54371.98
2022-11-16T07:19:30.952Z,54417.09
2022-11-16T07:20:35.083Z,54468.21
2022-11-16T07:21:38.701Z,54413.08
2022-11-16T07:22:43.211Z,54342.91
2022-11-16T07:23:46.501Z,54330.89
2022-11-16T07:24:51.033Z,54322.87
2022-11-16T07:25:55.430Z,54419.09
2022-11-16T07:26:59.738Z,54429.12
2022-11-16T07:28:04.601Z,54433.13
2022-11-16T07:29:07.860Z,54505.30
2022-11-16T07:30:10.820Z,54523.35
2022-11-16T07:31:14.298Z,54518.34
2022-11-16T07:32:18.038Z,54505.30
2022-11-16T07:33:21.935Z,54479.24
2022-11-16T07:34:26.417Z,54525.35
2022-11-16T07:35:29.601Z,54426.11
2022-11-16T07:36:33.795Z,54325.87
2022-11-16T07:37:37.588Z,54364.96
2022-11-16T07:38:40.916Z,54391.03
2022-11-16T07:39:44.486Z,54415.09
2022-11-16T07:40:48.578Z,54434.13
2022-11-16T07:41:54.012Z,54496.28
2022-11-16T07:42:57.083Z,54516.33
2022-11-16T07:44:00.778Z,54598.53
2022-11-16T07:45:03.756Z,54608.55
2022-11-16T07:46:44.553Z,54691.76
2022-11-16T07:47:12.208Z,54684.74
2022-11-16T07:48:15.249Z,54752.91
2022-11-16T07:50:48.854Z,54862.18
2022-11-16T07:51:52.660Z,54876.21
2022-11-16T07:52:57.582Z,54988.50
2022-11-16T07:54:00.660Z,55031.61
2022-11-16T07:55:05.301Z,55071.71
2022-11-16T07:56:09.578Z,55117.83
2022-11-16T07:57:12.977Z,55209.07
2022-11-16T07:58:15.846Z,55235.13
2022-11-16T07:59:19.244Z,55284.26
2022-11-16T08:00:22.404Z,55240.14
2022-11-16T08:01:25.987Z,55312.34
2022-11-16T08:02:29.079Z,55320.36
2022-11-16T08:03:31.957Z,55361.46
2022-11-16T08:04:34.944Z,55354.45
2022-11-16T08:05:38.568Z,55385.52
2022-11-16T08:06:42.333Z,55487.80
2022-11-16T08:07:44.989Z,55475.77
2022-11-16T08:08:47.896Z,55566.01
2022-11-16T08:09:50.786Z,55614.14
2022-11-16T08:10:54.031Z,55597.09
2022-11-16T08:11:57.610Z,55606.11
2022-11-16T08:13:01.330Z,55622.16
2022-11-16T08:14:05.059Z,55658.25
2022-11-16T08:15:08.604Z,55660.26
2022-11-16T08:16:12.092Z,55694.35
2022-11-16T08:17:16.000Z,55682.32
2022-11-16T08:18:18.874Z,55697.36
2022-11-16T08:19:22.050Z,55708.39
2022-11-16T08:20:25.529Z,55764.54
2022-11-16T08:21:28.395Z,55783.59
2022-11-16T08:22:34.982Z,55791.62
2022-11-16T08:23:38.549Z,55748.50
2022-11-16T08:24:41.744Z,55732.46
2022-11-16T08:25:45.540Z,55726.44
2022-11-16T08:26:48.914Z,55690.34
2022-11-16T08:27:54.147Z,55595.08
2022-11-16T08:28:57.352Z,55602.10
2022-11-16T08:30:00.111Z,55639.20
2022-11-16T08:31:03.784Z,55689.34
2022-11-16T08:32:07.078Z,55728.45
2022-11-16T08:33:10.358Z,55782.59
2022-11-16T08:34:13.768Z,55816.69
2022-11-16T08:35:17.636Z,55842.76
2022-11-16T08:36:20.830Z,55832.73
2022-11-16T08:37:23.695Z,55856.80
2022-11-16T08:38:27.190Z,55836.74
2022-11-16T08:39:29.963Z,55848.77
2022-11-16T08:40:41.590Z,55800.64
2022-11-16T08:41:44.231Z,55803.65
2022-11-16T08:42:47.496Z,55745.49
2022-11-16T08:43:51.393Z,55784.60
2022-11-16T08:44:56.455Z,55718.42
2022-11-16T08:45:59.766Z,55712.40
2022-11-16T08:47:02.800Z,55621.15
2022-11-16T08:48:07.233Z,55598.09
2022-11-16T08:49:10.265Z,55528.91
2022-11-16T08:50:15.462Z,55374.50
2022-11-16T08:51:20.193Z,55289.27
2022-11-16T08:52:23.698Z,55269.22
2022-11-16T08:53:27.943Z,55273.23
2022-11-16T08:54:31.063Z,55269.22
2022-11-16T08:55:36.126Z,55286.27
2022-11-16T08:56:39.721Z,55241.15
2022-11-16T08:57:44.154Z,55202.05
2022-11-16T08:58:52.474Z,55116.83
2022-11-16T08:59:53.048Z,55130.86
2022-11-16T09:01:00.666Z,55106.80
2022-11-16T09:02:04.461Z,55057.68
2022-11-16T09:03:07.817Z,55058.68
2022-11-16T09:04:10.695Z,55128.86
2022-11-16T09:05:14.190Z,55064.69
2022-11-16T09:06:18.187Z,55109.81
2022-11-16T09:07:21.744Z,55092.77
2022-11-16T09:08:25.095Z,55095.77
2022-11-16T09:09:31.370Z,55112.82
2022-11-16T09:10:40.285Z,55074.72
2022-11-16T09:13:04.530Z,55123.84
2022-11-16T09:14:13.755Z,55054.67
2022-11-16T09:15:22.654Z,55042.64
2022-11-16T09:16:31.609Z,55016.57
2022-11-16T09:17:35.374Z,55033.61
2022-11-16T09:18:39.018Z,55088.75
2022-11-16T09:19:42.330Z,55131.87
2022-11-16T09:20:45.695Z,55134.87
2022-11-16T09:21:58.192Z,55172.97
2022-11-16T09:23:01.224Z,55108.80
2022-11-16T09:25:27.655Z,55145.90
2022-11-16T09:26:36.881Z,55195.03
2022-11-16T09:27:40.496Z,55232.13
2022-11-16T09:28:50.156Z,55246.16
2022-11-16T09:29:53.500Z,55201.04
2022-11-16T09:31:06.694Z,55213.07
2022-11-16T09:32:14.117Z,55238.14
2022-11-16T09:33:17.184Z,55244.16
2022-11-16T09:34:20.129Z,55249.17
2022-11-16T09:35:25.814Z,55216.08
2022-11-16T09:36:32.045Z,55180.99
2022-11-16T09:37:52.065Z,55146.91
2022-11-16T09:39:29.568Z,55152.92
2022-11-16T09:40:11.099Z,55126.85
2022-11-16T09:42:37.541Z,55039.63
2022-11-16T09:43:46.979Z,54980.48
2022-11-16T09:46:15.924Z,54950.40
2022-11-16T09:47:20.424Z,54980.48
2022-11-16T09:48:28.953Z,55037.62
2022-11-16T09:49:36.478Z,55078.73
2022-11-16T09:50:39.042Z,55132.87
2022-11-16T10:06:34.481Z,54994.52
2022-11-16T10:07:38.837Z,55024.59
2022-11-16T10:11:24.319Z,55134.87
2022-11-16T10:12:43.849Z,55117.83
2022-11-16T10:13:51.483Z,55162.95
2022-11-16T10:15:04.078Z,55130.86
2022-11-16T10:16:23.727Z,55070.71
2022-11-16T10:17:26.301Z,55027.60
2022-11-16T10:18:28.962Z,55024.59
2022-11-16T10:22:12.472Z,55081.74
2022-11-16T10:23:15.309Z,55099.78
2022-11-16T10:24:17.765Z,55232.13
2022-11-16T10:25:21.451Z,55245.16
2022-11-16T10:26:23.724Z,55281.25
2022-11-16T10:27:27.187Z,55151.92
2022-11-16T10:28:31.062Z,55070.71
2022-11-16T10:31:00.986Z,55038.62
2022-11-16T10:33:26.695Z,55163.95
2022-11-16T10:34:29.303Z,55255.18
2022-11-16T10:38:17.250Z,55467.74
2022-11-16T10:39:24.814Z,55624.16
2022-11-16T10:40:27.295Z,55691.34
2022-11-16T10:41:35.320Z,55745.49
2022-11-16T10:42:46.589Z,55851.79
2022-11-16T10:43:50.106Z,55919.97
2022-11-16T10:46:16.076Z,56079.42
2022-11-16T10:47:18.578Z,56113.51
2022-11-16T10:48:22.190Z,56211.79
2022-11-16T10:49:29.709Z,56288.01
2022-11-16T10:50:32.557Z,56331.13
2022-11-16T10:51:40.145Z,56366.23
2022-11-16T10:52:45.860Z,56385.29
2022-11-16T10:54:05.150Z,56361.22
2022-11-16T10:55:07.646Z,56370.24
2022-11-16T10:56:14.158Z,56329.12
2022-11-16T10:57:16.695Z,56363.23
2022-11-16T10:58:18.999Z,56344.17
2022-11-16T10:59:21.535Z,56377.27
2022-11-16T11:00:24.136Z,56349.18
2022-11-16T11:01:35.545Z,56349.18
2022-11-16T11:02:46.465Z,56299.04
2022-11-16T11:03:48.833Z,56330.13
2022-11-16T11:05:00.022Z,56325.11
2022-11-16T11:22:26.092Z,56521.68
2022-11-16T11:57:24.546Z,56271.96
2022-11-16T12:13:22.390Z,56646.05
2022-11-16T12:15:46.276Z,56765.41
2022-11-16T12:18:13.814Z,56870.72
2022-11-16T12:20:41.926Z,56962.00
2022-11-16T12:24:26.966Z,56928.89
2022-11-16T12:26:50.002Z,56909.84
2022-11-16T12:28:03.222Z,56919.87
2022-11-16T12:29:14.288Z,56891.78
2022-11-16T12:30:16.545Z,56842.64
2022-11-16T12:31:28.855Z,56859.69
2022-11-16T12:32:42.407Z,56848.65
2022-11-16T12:33:44.679Z,56875.73
2022-11-16T12:34:52.001Z,56904.82
2022-11-16T12:35:59.424Z,56882.75
2022-11-16T12:37:02.005Z,56915.86
2022-11-16T12:38:04.536Z,56896.80
2022-11-16T12:40:37.266Z,56934.91
2022-11-16T12:41:39.554Z,56957.98
2022-11-16T12:42:42.036Z,56943.94
2022-11-16T12:43:44.537Z,56946.95
2022-11-16T12:44:48.175Z,56938.93
2022-11-16T12:45:50.458Z,56939.93
2022-11-16T12:46:52.679Z,56935.92
2022-11-16T12:47:54.979Z,56983.06
2022-11-16T12:50:21.527Z,56896.80
2022-11-16T12:51:27.528Z,56963.00
2022-11-16T12:52:27.751Z,56940.93
2022-11-16T12:53:36.410Z,56920.87
2022-11-16T12:54:48.026Z,56905.82
2022-11-16T12:55:57.761Z,56877.74
2022-11-16T12:57:00.325Z,56880.75
2022-11-16T12:58:02.941Z,56868.71
2022-11-16T13:00:29.201Z,56891.78
2022-11-16T13:01:31.595Z,56910.84
2022-11-16T13:02:46.087Z,56853.67
2022-11-16T13:03:48.439Z,56854.67
2022-11-16T13:04:50.720Z,56880.75
2022-11-16T13:05:52.926Z,56820.57
2022-11-16T13:06:56.567Z,56851.66
2022-11-16T13:07:59.162Z,56889.78
2022-11-16T13:09:01.528Z,56899.81
2022-11-16T13:10:05.493Z,56916.86
2022-11-16T13:11:07.931Z,56886.77
2022-11-16T13:12:10.442Z,56884.76
2022-11-16T13:13:35.548Z,56935.92
2022-11-16T13:14:16.640Z,56972.02
2022-11-16T13:15:18.880Z,56971.02
2022-11-16T13:16:21.387Z,57001.11
2022-11-16T13:17:23.851Z,57040.23
2022-11-16T13:18:27.083Z,57115.46
2022-11-16T13:19:29.483Z,57158.60
2022-11-16T13:20:38.888Z,57192.70
2022-11-16T13:21:41.123Z,57256.90
2022-11-16T13:22:48.057Z,57313.07
2022-11-16T13:23:50.402Z,57304.05
2022-11-16T13:24:52.790Z,57325.11
2022-11-16T13:25:55.092Z,57345.18
2022-11-16T13:27:06.609Z,57306.05
2022-11-16T13:28:09.062Z,57318.09
2022-11-16T13:30:31.721Z,57372.26
2022-11-16T13:31:33.981Z,57452.51
2022-11-16T13:32:36.229Z,57401.35
2022-11-16T13:33:38.585Z,57435.46
2022-11-16T13:34:41.057Z,57450.51
2022-11-16T13:35:53.630Z,57509.70
2022-11-16T13:36:59.854Z,57546.81
2022-11-16T13:38:04.680Z,57556.84
2022-11-16T13:39:07.025Z,57549.82
2022-11-16T13:40:09.245Z,57586.94
2022-11-16T13:41:11.538Z,57687.26
2022-11-16T13:42:13.773Z,57691.27
2022-11-16T13:43:16.010Z,57726.39
2022-11-16T13:44:18.441Z,57743.44
2022-11-16T13:45:20.719Z,57758.49
2022-11-16T13:46:54.279Z,57774.54
2022-11-16T13:47:31.928Z,57807.65
2022-11-16T13:48:34.840Z,57832.73
2022-11-16T13:49:37.919Z,57882.89
2022-11-16T13:50:40.546Z,57880.89
2022-11-16T13:51:43.228Z,57921.02
2022-11-16T13:53:36.316Z,57967.17
2022-11-16T13:54:54.701Z,57994.26
2022-11-16T13:55:57.547Z,58059.48
2022-11-16T13:56:59.920Z,58071.52
2022-11-16T13:58:02.151Z,58101.62
2022-11-16T13:59:15.501Z,58153.79
2022-11-16T14:00:17.725Z,58190.91
2022-11-16T14:01:20.024Z,58259.14
2022-11-16T14:03:43.859Z,58328.37
2022-11-16T14:04:46.304Z,58405.64
2022-11-16T14:05:48.549Z,58442.76
2022-11-16T14:06:50.821Z,58488.92
2022-11-16T14:07:57.260Z,58543.11
2022-11-16T14:08:59.783Z,58557.15
2022-11-16T14:10:02.031Z,58632.41
2022-11-16T14:11:04.301Z,58713.70
2022-11-16T14:12:13.562Z,58733.76
2022-11-16T14:13:16.028Z,58810.03
2022-11-16T14:14:24.340Z,58903.36
2022-11-16T14:15:31.048Z,58918.41
2022-11-16T14:16:51.247Z,58960.56
2022-11-16T14:17:56.264Z,58939.48
2022-11-16T14:18:58.620Z,58963.57
2022-11-16T14:21:21.438Z,58960.56
2022-11-16T14:22:23.741Z,59036.83
2022-11-16T14:23:35.131Z,58997.69
2022-11-16T14:24:37.486Z,59008.73
2022-11-16T14:25:39.719Z,59079.98
2022-11-16T14:26:42.059Z,59097.04
2022-11-16T14:27:44.390Z,59110.09
2022-11-16T14:28:46.592Z,59187.37
2022-11-16T14:29:48.889Z,59213.46
2022-11-16T14:30:51.140Z,59216.47
2022-11-16T14:31:53.340Z,59243.57
2022-11-16T14:32:55.549Z,59277.69
2022-11-16T14:33:58.756Z,59317.84
2022-11-16T14:35:01.073Z,59361.00
2022-11-16T14:36:03.567Z,59396.12
2022-11-16T14:37:06.073Z,59424.23
2022-11-16T14:38:08.534Z,59477.42
2022-11-16T14:39:10.996Z,59515.56
2022-11-16T14:40:13.484Z,59536.64
2022-11-16T14:41:15.866Z,59581.80
2022-11-16T14:42:18.396Z,59592.84
2022-11-16T14:43:20.587Z,59636.00
2022-11-16T14:44:26.104Z,59657.08
2022-11-16T14:45:28.579Z,59663.11
2022-11-16T14:46:31.224Z,59686.19
2022-11-16T14:47:33.859Z,59705.26
2022-11-16T14:48:36.373Z,59701.25
2022-11-16T14:49:38.696Z,59739.39
2022-11-16T14:50:41.194Z,59727.34
2022-11-16T14:51:43.404Z,59760.46
2022-11-16T14:52:45.726Z,59801.62
2022-11-16T14:53:47.949Z,59802.62
2022-11-16T14:54:50.230Z,59795.60
2022-11-16T14:55:52.450Z,59863.86
2022-11-16T14:56:54.857Z,59832.74
2022-11-16T14:57:57.094Z,59875.90
2022-11-16T14:58:59.315Z,59907.02
2022-11-16T15:00:01.618Z,59889.95
2022-11-16T15:01:03.849Z,59891.96
2022-11-16T15:02:06.031Z,59875.90
2022-11-16T15:03:08.460Z,59921.07
2022-11-16T15:04:10.866Z,59920.07
2022-11-16T15:05:14.499Z,59962.23
2022-11-16T15:06:16.987Z,59922.07
2022-11-16T15:07:19.504Z,59940.14
2022-11-16T15:08:32.504Z,59955.20
2022-11-16T15:09:35.867Z,59987.32
2022-11-16T15:10:38.140Z,59968.25
2022-11-16T15:11:40.420Z,59960.22
2022-11-16T15:12:42.701Z,59964.23
2022-11-16T15:13:44.993Z,59927.09
2022-11-16T15:14:47.190Z,59963.23
2022-11-16T15:15:49.462Z,59993.34
2022-11-16T15:16:51.707Z,59974.27
2022-11-16T15:17:53.944Z,59961.22
2022-11-16T15:18:56.135Z,59990.33
2022-11-16T15:19:58.416Z,60022.45
2022-11-16T15:21:00.683Z,60021.45
2022-11-16T15:22:03.224Z,60000.37
2022-11-16T15:23:06.612Z,59982.30
2022-11-16T15:24:29.315Z,60009.41
2022-11-16T15:25:12.924Z,59996.36
2022-11-16T15:26:15.389Z,60001.37
2022-11-16T15:27:17.920Z,60009.41
2022-11-16T15:29:40.704Z,60033.50
2022-11-16T15:30:42.948Z,60060.60
2022-11-16T15:31:45.183Z,60008.40
2022-11-16T15:32:47.422Z,59962.23
2022-11-16T15:34:01.390Z,59982.30
2022-11-16T15:35:05.429Z,59987.32
2022-11-16T15:36:07.928Z,59990.33
2022-11-16T15:37:10.430Z,59978.29
2022-11-16T15:38:12.879Z,59979.29
2022-11-16T15:39:15.290Z,59948.17
2022-11-16T15:40:17.848Z,59961.22
2022-11-16T15:41:20.337Z,59942.15
2022-11-16T15:42:25.953Z,59895.97
2022-11-16T15:43:28.386Z,59943.15
2022-11-16T15:44:31.154Z,59944.16
2022-11-16T15:45:33.687Z,59920.07
2022-11-16T15:46:36.004Z,59934.12
2022-11-16T15:47:38.262Z,59974.27
2022-11-16T15:48:40.489Z,59927.09
2022-11-16T15:49:42.757Z,59915.05
2022-11-16T15:50:44.971Z,59942.15
2022-11-16T15:51:47.162Z,59939.14
2022-11-16T15:52:49.372Z,59945.16
2022-11-16T15:53:51.709Z,59952.19
2022-11-16T15:54:53.936Z,59938.13
2022-11-16T15:55:56.172Z,59948.17
2022-11-16T15:56:58.345Z,59938.13
2022-11-16T15:58:00.767Z,59954.20
2022-11-16T15:59:02.979Z,59942.15
2022-11-16T16:00:05.227Z,59950.18
2022-11-16T16:01:07.541Z,59963.23
2022-11-16T16:02:09.756Z,59953.19
2022-11-16T16:03:11.971Z,59964.23
2022-11-16T16:04:14.245Z,59930.11
2022-11-16T16:05:21.196Z,59926.09
2022-11-16T16:06:20.606Z,59920.07
2022-11-16T16:07:22.899Z,59946.16
2022-11-16T16:08:26.750Z,59926.09
2022-11-16T16:09:28.952Z,59934.12
2022-11-16T16:10:31.192Z,59940.14
2022-11-16T16:11:33.695Z,59954.20
2022-11-16T16:12:36.222Z,59946.16
2022-11-16T16:13:38.790Z,59954.20
2022-11-16T16:14:41.360Z,59945.16
2022-11-16T16:15:43.852Z,59981.30
2022-11-16T16:16:46.539Z,59936.12
2022-11-16T16:17:49.034Z,59938.13
2022-11-16T16:18:51.577Z,59908.02
2022-11-16T16:19:53.867Z,59891.96
2022-11-16T16:20:56.127Z,59894.97
2022-11-16T16:21:58.366Z,59897.98
2022-11-16T16:23:00.622Z,59844.78
2022-11-16T16:24:02.911Z,59849.80
2022-11-16T16:25:05.391Z,59887.95
2022-11-16T16:26:07.929Z,59890.96
2022-11-16T16:27:10.391Z,59903.00
2022-11-16T16:28:12.894Z,59926.09
2022-11-16T16:29:15.316Z,59969.25
2022-11-16T16:30:17.809Z,59991.34
2022-11-16T16:31:25.932Z,59972.27
2022-11-16T16:32:28.498Z,60016.43
2022-11-16T16:33:30.999Z,60068.63
2022-11-16T16:34:37.668Z,60084.69
2022-11-16T16:35:37.564Z,60138.90
2022-11-16T16:36:40.073Z,60124.84
2022-11-16T16:37:42.615Z,60139.90
2022-11-16T16:38:45.097Z,60102.76
2022-11-16T16:39:47.326Z,60120.83
2022-11-16T16:40:49.799Z,60138.90
2022-11-16T16:41:52.109Z,60167.01
2022-11-16T16:42:54.363Z,60173.03
2022-11-16T16:43:56.932Z,60228.24
2022-11-16T16:44:59.347Z,60281.45
2022-11-16T16:46:01.796Z,60305.54
2022-11-16T16:47:04.329Z,60342.68
2022-11-16T16:48:06.692Z,60344.69
2022-11-16T16:49:09.147Z,60385.85
2022-11-16T16:50:11.490Z,60383.84
2022-11-16T16:51:24.553Z,60402.92
2022-11-16T16:52:26.886Z,60390.87
2022-11-16T16:53:29.309Z,60458.13
2022-11-16T16:54:31.609Z,60438.05
2022-11-16T16:55:37.182Z,60450.10
2022-11-16T16:56:37.852Z,60466.17
2022-11-16T16:57:43.195Z,60465.16
2022-11-16T16:58:45.571Z,60458.13
2022-11-16T16:59:48.069Z,60506.32
2022-11-16T17:00:50.429Z,60499.30
2022-11-16T17:01:52.910Z,60468.18
2022-11-16T17:02:55.251Z,60482.23
2022-11-16T17:04:00.917Z,60485.24
2022-11-16T17:05:03.443Z,60508.33
2022-11-16T17:06:05.805Z,60499.30
2022-11-16T17:07:08.655Z,60487.25
2022-11-16T17:08:13.964Z,60526.40
2022-11-16T17:09:18.340Z,60540.46
2022-11-16T17:10:20.696Z,60556.52
2022-11-16T17:11:23.158Z,60587.64
2022-11-16T17:12:25.673Z,60605.71
2022-11-16T17:13:28.110Z,60620.77
2022-11-16T17:14:30.402Z,60619.77
2022-11-16T17:15:32.698Z,60645.87
2022-11-16T17:16:35.036Z,60636.84
2022-11-16T17:17:37.251Z,60633.82
2022-11-16T17:18:39.712Z,60683.02
2022-11-16T17:19:42.526Z,60682.02
2022-11-16T17:20:45.735Z,60700.09
2022-11-16T17:21:48.615Z,60658.92
2022-11-16T17:22:51.332Z,60711.13
2022-11-16T17:23:53.814Z,60704.10
2022-11-16T17:24:59.297Z,60688.04
2022-11-16T17:26:01.860Z,60743.26
2022-11-16T17:27:04.572Z,60741.25
2022-11-16T17:28:07.429Z,60754.30
2022-11-16T17:29:14.097Z,60755.31
2022-11-16T17:30:17.187Z,60728.20
2022-11-16T17:31:19.940Z,60745.27
2022-11-16T17:32:22.990Z,60782.41
2022-11-16T17:33:25.816Z,60813.54
2022-11-16T17:34:29.015Z,60807.52
2022-11-16T17:35:35.141Z,60824.58
2022-11-16T17:36:38.108Z,60814.54
2022-11-16T17:37:41.004Z,60813.54
2022-11-16T17:38:43.884Z,60802.50
2022-11-16T17:39:46.537Z,60826.59
2022-11-16T17:40:49.151Z,60795.46
2022-11-16T17:41:51.592Z,60818.56
2022-11-16T17:42:57.351Z,60807.52
2022-11-16T17:44:05.328Z,60841.65
2022-11-16T17:45:07.948Z,60800.49
2022-11-16T17:46:10.580Z,60807.52
2022-11-16T17:47:13.158Z,60779.40
2022-11-16T17:48:15.852Z,60800.49
2022-11-16T17:49:18.728Z,60773.38
2022-11-16T17:50:24.695Z,60791.45
2022-11-16T17:51:30.805Z,60772.37
2022-11-16T17:52:33.349Z,60790.45
2022-11-16T17:53:36.250Z,60768.36